createdAt,value
2023-11-07T00:00:35.919Z,98110.97
2023-11-07T00:02:41.077Z,98109.41
2023-11-07T00:04:46.821Z,98114.50
2023-11-07T00:06:52.857Z,98112.78
2023-11-07T00:08:58.042Z,98116.06
2023-11-07T00:11:03.776Z,98106.94
2023-11-07T00:13:06.381Z,98107.66
2023-11-07T00:15:15.172Z,98125.22
2023-11-07T00:17:22.682Z,98129.38
2023-11-07T00:19:28.217Z,98135.22
2023-11-07T00:21:31.226Z,98132.84
2023-11-07T00:23:36.477Z,98135.38
2023-11-07T00:25:41.669Z,98131.09
2023-11-07T00:27:47.388Z,98135.34
2023-11-07T00:29:50.036Z,98137.88
2023-11-07T00:31:58.550Z,98133.63
2023-11-07T00:34:04.548Z,98131.03
2023-11-07T00:36:12.158Z,98131.03
2023-11-07T00:38:17.345Z,98134.44
2023-11-07T00:40:23.653Z,98134.41
2023-11-07T00:42:29.809Z,98134.41
2023-11-07T00:44:35.198Z,98139.53
2023-11-07T00:46:40.946Z,98131.94
2023-11-07T00:48:48.741Z,98140.28
2023-11-07T00:50:53.918Z,98135.34
2023-11-07T00:52:59.902Z,98144.56
2023-11-07T00:55:05.020Z,98141.97
2023-11-07T00:57:11.323Z,98141.06
2023-11-07T00:59:17.038Z,98146.09
2023-11-07T01:01:22.190Z,98149.56
2023-11-07T01:03:27.944Z,98160.47
2023-11-07T01:05:35.981Z,98157.94
2023-11-07T01:07:42.173Z,98157.84
2023-11-07T01:09:45.126Z,98155.41
2023-11-07T01:11:50.295Z,98153.56
2023-11-07T01:13:53.473Z,98147.81
2023-11-07T01:15:58.630Z,98154.59
2023-11-07T01:18:05.855Z,98149.56
2023-11-07T01:20:11.151Z,98152.16
2023-11-07T01:22:18.881Z,98158.06
2023-11-07T01:24:24.034Z,98155.47
2023-11-07T01:26:26.656Z,98154.66
2023-11-07T01:28:32.375Z,98160.50
2023-11-07T01:30:37.492Z,98163.25
2023-11-07T01:32:43.054Z,98159.78
2023-11-07T01:34:48.223Z,98168.25
2023-11-07T01:36:53.376Z,98169.00
2023-11-07T01:39:01.819Z,98175.63
2023-11-07T01:41:08.361Z,98169.78
2023-11-07T01:43:18.458Z,98181.41
2023-11-07T01:45:24.982Z,98183.81
2023-11-07T01:47:30.331Z,98184.50
2023-11-07T01:49:35.975Z,98179.50
2023-11-07T01:51:41.736Z,98177.03
2023-11-07T01:53:47.446Z,98174.47
2023-11-07T01:55:55.388Z,98171.09
2023-11-07T01:58:02.425Z,98172.75
2023-11-07T02:00:13.095Z,98170.25
2023-11-07T02:02:20.108Z,98167.84
2023-11-07T02:04:26.326Z,98170.38
2023-11-07T02:06:31.505Z,98160.38
2023-11-07T02:08:38.127Z,98163.06
2023-11-07T02:10:44.690Z,98160.50
2023-11-07T02:12:55.099Z,98163.94
2023-11-07T02:15:00.285Z,98160.63
2023-11-07T02:17:05.899Z,98163.94
2023-11-07T02:19:09.536Z,98158.13
2023-11-07T02:21:15.189Z,98163.06
2023-11-07T02:23:34.226Z,98164.81
2023-11-07T02:25:40.098Z,98176.50
2023-11-07T02:27:45.258Z,98177.34
2023-11-07T02:29:50.458Z,98179.00
2023-11-07T02:31:53.169Z,98169.72
2023-11-07T02:33:58.885Z,98173.88
2023-11-07T02:36:04.921Z,98170.50
2023-11-07T02:38:08.287Z,98173.03
2023-11-07T02:40:16.957Z,98168.84
2023-11-07T02:42:22.056Z,98171.25
2023-11-07T02:44:27.762Z,98172.91
2023-11-07T02:46:32.907Z,98174.66
2023-11-07T02:48:38.753Z,98176.22
2023-11-07T02:50:45.937Z,98172.91
2023-11-07T02:52:51.185Z,98177.78
2023-11-07T02:54:53.722Z,98167.72
2023-11-07T02:57:04.148Z,98180.28
2023-11-07T02:59:10.639Z,98177.13
2023-11-07T03:01:23.174Z,98184.50
2023-11-07T03:03:28.381Z,98168.75
2023-11-07T03:05:33.706Z,98179.00
2023-11-07T03:07:39.695Z,98178.19
2023-11-07T03:09:43.065Z,98176.56
2023-11-07T03:11:48.306Z,98185.03
2023-11-07T03:13:56.002Z,98187.50
2023-11-07T03:16:01.367Z,98184.34
2023-11-07T03:18:07.433Z,98176.19
2023-11-07T03:20:13.641Z,98183.66
2023-11-07T03:22:18.779Z,98183.84
2023-11-07T03:24:23.937Z,98178.72
2023-11-07T03:26:29.046Z,98183.66
2023-11-07T03:28:34.252Z,98183.84
2023-11-07T03:30:42.546Z,98178.81
2023-11-07T03:32:48.291Z,98181.34
2023-11-07T03:34:53.894Z,98177.22
2023-11-07T03:36:56.560Z,98173.16
2023-11-07T03:39:01.957Z,98172.53
2023-11-07T03:41:09.205Z,98177.56
2023-11-07T03:43:14.336Z,98180.91
2023-11-07T03:45:19.619Z,98169.94
2023-11-07T03:47:27.468Z,98170.81
2023-11-07T03:49:32.790Z,98165.88
2023-11-07T03:51:38.523Z,98173.47
2023-11-07T03:53:44.106Z,98171.13
2023-11-07T03:55:50.649Z,98174.50
2023-11-07T03:57:56.078Z,98182.91
2023-11-07T04:00:01.223Z,98172.94
2023-11-07T04:02:06.919Z,98178.94
2023-11-07T04:04:15.247Z,98178.09
2023-11-07T04:06:21.000Z,98174.59
2023-11-07T04:08:26.124Z,98181.09
2023-11-07T04:10:31.657Z,98177.81
2023-11-07T04:12:34.595Z,98188.81
2023-11-07T04:14:39.740Z,98189.63
2023-11-07T04:16:46.044Z,98196.31
2023-11-07T04:18:52.879Z,98188.00
2023-11-07T04:21:00.684Z,98186.44
2023-11-07T04:23:08.123Z,98191.34
2023-11-07T04:25:14.475Z,98193.09
2023-11-07T04:27:20.172Z,98183.13
2023-11-07T04:29:25.323Z,98193.00
2023-11-07T04:31:31.402Z,98193.66
2023-11-07T04:33:37.968Z,98189.50
2023-11-07T04:35:43.736Z,98189.41
2023-11-07T04:37:51.534Z,98189.31
2023-11-07T04:39:56.668Z,98199.44
2023-11-07T04:41:59.349Z,98191.13
2023-11-07T04:44:04.924Z,98193.69
2023-11-07T04:46:10.634Z,98181.25
2023-11-07T04:48:15.914Z,98195.56
2023-11-07T04:50:21.108Z,98189.78
2023-11-07T04:52:26.238Z,98191.69
2023-11-07T04:54:34.010Z,98192.53
2023-11-07T04:56:39.154Z,98200.22
2023-11-07T04:58:56.832Z,98203.75
2023-11-07T05:01:04.176Z,98187.88
2023-11-07T05:03:09.458Z,98200.63
2023-11-07T05:05:16.007Z,98199.72
2023-11-07T05:07:21.219Z,98198.88
2023-11-07T05:09:26.852Z,98199.69
2023-11-07T05:11:34.576Z,98196.84
2023-11-07T05:13:39.800Z,98198.41
2023-11-07T05:15:43.920Z,98198.34
2023-11-07T05:17:50.130Z,98194.03
2023-11-07T05:19:52.793Z,98197.19
2023-11-07T05:21:57.929Z,98192.06
2023-11-07T05:24:03.047Z,98193.56
2023-11-07T05:26:11.308Z,98195.00
2023-11-07T05:28:19.024Z,98192.34
2023-11-07T05:30:24.296Z,98191.41
2023-11-07T05:32:26.976Z,98185.53
2023-11-07T05:34:32.511Z,98184.81
2023-11-07T05:36:37.934Z,98191.59
2023-11-07T05:38:40.530Z,98181.66
2023-11-07T05:40:45.673Z,98183.66
2023-11-07T05:42:51.557Z,98177.13
2023-11-07T05:45:01.862Z,98178.88
2023-11-07T05:47:08.404Z,98184.78
2023-11-07T05:49:14.697Z,98183.22
2023-11-07T05:51:19.884Z,98183.31
2023-11-07T05:53:22.983Z,98181.66
2023-11-07T05:55:28.152Z,98186.66
2023-11-07T05:57:34.364Z,98185.84
2023-11-07T05:59:40.534Z,98183.22
2023-11-07T06:01:48.250Z,98189.88
2023-11-07T06:03:56.216Z,98184.88
2023-11-07T06:06:01.488Z,98185.72
2023-11-07T06:08:08.496Z,98178.19
2023-11-07T06:10:14.499Z,98176.41
2023-11-07T06:12:19.677Z,98181.50
2023-11-07T06:14:25.553Z,98183.31
2023-11-07T06:16:30.760Z,98185.94
2023-11-07T06:18:41.012Z,98185.09
2023-11-07T06:20:46.345Z,98192.75
2023-11-07T06:22:52.216Z,98198.59
2023-11-07T06:24:58.163Z,98202.09
2023-11-07T06:27:03.403Z,98200.50
2023-11-07T06:29:09.123Z,98198.03
2023-11-07T06:31:14.335Z,98211.38
2023-11-07T06:33:20.944Z,98204.06
2023-11-07T06:35:29.850Z,98215.56
2023-11-07T06:37:34.984Z,98206.09
2023-11-07T06:39:41.027Z,98208.75
2023-11-07T06:41:46.176Z,98212.13
2023-11-07T06:43:52.329Z,98213.78
2023-11-07T06:45:58.478Z,98214.38
2023-11-07T06:48:05.702Z,98215.09
2023-11-07T06:50:14.609Z,98216.75
2023-11-07T06:52:22.308Z,98223.47
2023-11-07T06:54:27.509Z,98216.59
2023-11-07T06:56:32.628Z,98218.81
2023-11-07T06:58:40.990Z,98218.50
2023-11-07T07:00:46.626Z,98220.81
2023-11-07T07:02:49.949Z,98217.34
2023-11-07T07:04:58.156Z,98216.53
2023-11-07T07:07:03.841Z,98228.91
2023-11-07T07:09:15.168Z,98222.16
2023-11-07T07:11:21.810Z,98219.47
2023-11-07T07:13:27.051Z,98220.09
2023-11-07T07:15:32.638Z,98219.91
2023-11-07T07:17:37.843Z,98223.94
2023-11-07T07:19:43.009Z,98218.66
2023-11-07T07:21:49.129Z,98224.50
2023-11-07T07:23:54.339Z,98226.06
2023-11-07T07:26:03.039Z,98227.53
2023-11-07T07:28:08.717Z,98226.56
2023-11-07T07:30:23.297Z,98225.72
2023-11-07T07:32:30.407Z,98227.28
2023-11-07T07:34:36.160Z,98225.44
2023-11-07T07:36:49.314Z,98232.97
2023-11-07T07:38:54.775Z,98231.38
2023-11-07T07:41:02.762Z,98232.31
2023-11-07T07:43:11.152Z,98233.19
2023-11-07T07:45:16.460Z,98237.31
2023-11-07T07:47:22.186Z,98242.34
2023-11-07T07:49:28.152Z,98235.69
2023-11-07T07:51:30.719Z,98240.59
2023-11-07T07:53:37.841Z,98243.72
2023-11-07T07:55:45.015Z,98250.31
2023-11-07T07:57:54.735Z,98241.09
2023-11-07T07:59:59.865Z,98249.47
2023-11-07T08:02:07.789Z,98253.75
2023-11-07T08:04:13.867Z,98249.00
2023-11-07T08:06:20.734Z,98245.72
2023-11-07T08:08:26.302Z,98244.41
2023-11-07T08:10:31.564Z,98247.97
2023-11-07T08:12:36.955Z,98251.41
2023-11-07T08:14:47.874Z,98248.03
2023-11-07T08:16:54.248Z,98247.81
2023-11-07T08:18:59.824Z,98247.69
2023-11-07T08:21:06.458Z,98248.31
2023-11-07T08:23:12.270Z,98247.34
2023-11-07T08:25:19.399Z,98262.16
2023-11-07T08:27:25.025Z,98259.34
2023-11-07T08:29:27.950Z,98250.59
2023-11-07T08:31:36.143Z,98257.13
2023-11-07T08:33:43.681Z,98258.13
2023-11-07T08:35:48.963Z,98268.47
2023-11-07T08:37:55.460Z,98261.84
2023-11-07T08:40:01.059Z,98256.69
2023-11-07T08:42:07.711Z,98260.06
2023-11-07T08:44:12.809Z,98261.50
2023-11-07T08:46:26.054Z,98267.50
2023-11-07T08:48:35.031Z,98272.78
2023-11-07T08:50:40.451Z,98271.53
2023-11-07T08:52:48.570Z,98275.84
2023-11-07T08:54:54.166Z,98270.13
2023-11-07T08:56:59.299Z,98273.50
2023-11-07T08:59:04.484Z,98272.63
2023-11-07T09:01:11.389Z,98264.16
2023-11-07T09:03:16.655Z,98268.44
2023-11-07T09:05:26.111Z,98276.00
2023-11-07T09:07:28.669Z,98276.63
2023-11-07T09:09:35.461Z,98279.16
2023-11-07T09:11:41.621Z,98284.78
2023-11-07T09:13:47.217Z,98279.78
2023-11-07T09:15:55.164Z,98283.97
2023-11-07T09:18:01.142Z,98278.09
2023-11-07T09:20:07.348Z,98281.66
2023-11-07T09:22:15.056Z,98281.66
2023-11-07T09:24:20.712Z,98279.16
2023-11-07T09:26:25.862Z,98283.38
2023-11-07T09:28:30.945Z,98281.69
2023-11-07T09:30:36.044Z,98274.88
2023-11-07T09:32:41.727Z,98282.50
2023-11-07T09:34:46.946Z,98285.31
2023-11-07T09:36:52.771Z,98278.50
2023-11-07T09:39:03.406Z,98292.69
2023-11-07T09:41:08.701Z,98288.72
2023-11-07T09:43:17.446Z,98287.09
2023-11-07T09:45:23.535Z,98281.75
2023-11-07T09:47:30.195Z,98283.25
2023-11-07T09:49:35.680Z,98282.97
2023-11-07T09:51:41.216Z,98290.84
2023-11-07T09:53:54.643Z,98282.16
2023-11-07T09:56:02.969Z,98284.28
2023-11-07T09:58:15.909Z,98289.75
2023-11-07T10:00:22.680Z,98287.38
2023-11-07T10:02:28.152Z,98280.97
2023-11-07T10:04:34.797Z,98293.53
2023-11-07T10:06:40.426Z,98282.41
2023-11-07T10:08:46.372Z,98282.06
2023-11-07T10:11:16.074Z,98286.91
2023-11-07T10:13:21.163Z,98282.34
2023-11-07T10:15:26.431Z,98288.19
2023-11-07T10:17:31.702Z,98285.91
2023-11-07T10:19:37.815Z,98288.38
2023-11-07T10:21:42.978Z,98292.13
2023-11-07T10:23:48.096Z,98288.09
2023-11-07T10:25:53.643Z,98290.75
2023-11-07T10:28:05.423Z,98289.75
2023-11-07T10:30:13.446Z,98286.28
2023-11-07T10:32:18.859Z,98289.69
2023-11-07T10:34:24.023Z,98294.34
2023-11-07T10:36:40.174Z,98279.50
2023-11-07T10:38:45.254Z,98284.53
2023-11-07T10:40:52.353Z,98287.66
2023-11-07T10:43:00.428Z,98285.00
2023-11-07T10:45:11.681Z,98287.38
2023-11-07T10:47:19.056Z,98278.47
2023-11-07T10:49:22.877Z,98276.53
2023-11-07T10:51:30.698Z,98271.03
2023-11-07T10:53:38.003Z,98266.06
2023-11-07T10:55:43.478Z,98271.50
2023-11-07T10:57:58.082Z,98267.16
2023-11-07T11:00:14.245Z,98268.03
2023-11-07T11:02:22.663Z,98266.06
2023-11-07T11:04:33.048Z,98275.00
2023-11-07T11:06:38.774Z,98269.88
2023-11-07T11:08:46.669Z,98264.84
2023-11-07T11:10:53.850Z,98261.00
2023-11-07T11:12:58.034Z,98261.00
2023-11-07T11:15:03.273Z,98259.59
2023-11-07T11:17:26.663Z,98269.78
2023-11-07T11:19:39.104Z,98263.50
2023-11-07T11:21:53.378Z,98264.44
2023-11-07T11:24:06.340Z,98262.69
2023-11-07T11:26:32.383Z,98265.78
2023-11-07T11:28:42.255Z,98258.34
2023-11-07T11:30:58.993Z,98257.84
2023-11-07T11:33:14.340Z,98257.06
2023-11-07T11:35:34.928Z,98255.91
2023-11-07T11:38:12.446Z,98267.13
2023-11-07T11:40:54.640Z,98259.84
2023-11-07T11:43:09.624Z,98252.00
2023-11-07T11:47:54.588Z,98256.81
2023-11-07T11:50:21.033Z,98264.78
2023-11-07T11:52:37.079Z,98268.38
2023-11-07T11:54:58.184Z,98267.84
2023-11-07T11:57:11.647Z,98265.50
2023-11-07T11:59:18.650Z,98265.63
2023-11-07T12:01:25.441Z,98264.97
2023-11-07T12:03:40.780Z,98270.94
2023-11-07T12:06:07.901Z,98272.78
2023-11-07T12:08:42.561Z,98268.28
2023-11-07T12:10:59.620Z,98263.16
2023-11-07T12:13:05.635Z,98258.06
2023-11-07T12:15:09.623Z,98249.56
2023-11-07T12:17:15.487Z,98250.81
2023-11-07T12:19:23.841Z,98255.72
2023-11-07T12:21:32.697Z,98247.34
2023-11-07T12:23:36.004Z,98243.84
2023-11-07T12:25:51.703Z,98240.38
2023-11-07T12:28:07.677Z,98242.53
2023-11-07T12:30:20.027Z,98245.41
2023-11-07T12:32:25.995Z,98246.78
2023-11-07T12:34:35.887Z,98244.09
2023-11-07T12:36:43.865Z,98246.50
2023-11-07T12:38:49.248Z,98250.72
2023-11-07T12:40:52.074Z,98244.66
2023-11-07T12:42:59.979Z,98240.25
2023-11-07T12:45:08.136Z,98245.78
2023-11-07T12:47:14.235Z,98241.59
2023-11-07T12:49:18.553Z,98236.44
2023-11-07T12:51:26.598Z,98231.94
2023-11-07T12:53:34.367Z,98233.63
2023-11-07T12:55:40.307Z,98234.78
2023-11-07T12:57:45.419Z,98241.94
2023-11-07T13:00:01.908Z,98239.28
2023-11-07T13:02:07.321Z,98246.09
2023-11-07T13:04:14.616Z,98242.84
2023-11-07T13:06:23.499Z,98239.69
2023-11-07T13:08:37.505Z,98243.50
2023-11-07T13:10:42.852Z,98237.22
2023-11-07T13:12:45.947Z,98234.22
2023-11-07T13:14:51.770Z,98232.97
2023-11-07T13:16:56.852Z,98229.53
2023-11-07T13:19:00.405Z,98227.13
2023-11-07T13:21:05.963Z,98224.66
2023-11-07T13:23:11.086Z,98222.59
2023-11-07T13:25:19.937Z,98231.16
2023-11-07T13:27:25.166Z,98222.44
2023-11-07T13:29:32.056Z,98233.56
2023-11-07T13:31:37.206Z,98244.66
2023-11-07T13:33:43.763Z,98247.34
2023-11-07T13:35:50.366Z,98243.94
2023-11-07T13:37:54.126Z,98243.19
2023-11-07T13:39:59.808Z,98242.59
2023-11-07T13:42:08.231Z,98235.78
2023-11-07T13:44:14.334Z,98236.22
2023-11-07T13:46:20.165Z,98239.28
2023-11-07T13:48:23.737Z,98234.38
2023-11-07T13:50:29.107Z,98241.97
2023-11-07T13:52:34.247Z,98243.00
2023-11-07T13:54:39.909Z,98238.69
2023-11-07T13:56:45.037Z,98244.22
2023-11-07T13:58:54.374Z,98241.63
2023-11-07T14:01:00.065Z,98242.69
2023-11-07T14:03:05.382Z,98250.50
2023-11-07T14:05:12.660Z,98244.06
2023-11-07T14:07:18.400Z,98253.28
2023-11-07T14:09:24.241Z,98247.81
2023-11-07T14:11:29.919Z,98256.22
2023-11-07T14:13:34.984Z,98251.38
2023-11-07T14:15:43.225Z,98256.41
2023-11-07T14:17:48.839Z,98252.13
2023-11-07T14:19:56.892Z,98237.47
2023-11-07T14:22:02.666Z,98243.47
2023-11-07T14:24:09.437Z,98243.38
2023-11-07T14:26:15.166Z,98241.72
2023-11-07T14:28:21.889Z,98243.66
2023-11-07T14:30:37.613Z,98245.38
2023-11-07T14:32:48.987Z,98244.09
2023-11-07T14:34:52.652Z,98239.94
2023-11-07T14:36:58.081Z,98232.91
2023-11-07T14:39:04.898Z,98245.06
2023-11-07T14:41:09.119Z,98237.63
2023-11-07T14:43:17.429Z,98238.75
2023-11-07T14:45:24.155Z,98236.13
2023-11-07T14:47:27.032Z,98233.59
2023-11-07T14:49:35.315Z,98246.78
2023-11-07T14:51:41.131Z,98240.88
2023-11-07T14:53:43.731Z,98241.47
2023-11-07T14:55:50.827Z,98244.41
2023-11-07T14:57:54.599Z,98249.84
2023-11-07T15:00:02.576Z,98247.00
2023-11-07T15:02:14.667Z,98262.50
2023-11-07T15:04:27.537Z,98265.06
2023-11-07T15:06:36.053Z,98260.88
2023-11-07T15:08:41.230Z,98270.97
2023-11-07T15:10:47.145Z,98273.19
2023-11-07T15:12:53.127Z,98274.13
2023-11-07T15:14:58.316Z,98277.41
2023-11-07T15:17:03.548Z,98277.56
2023-11-07T15:19:08.896Z,98288.44
2023-11-07T15:21:14.682Z,98280.75
2023-11-07T15:23:23.759Z,98281.59
2023-11-07T15:25:31.746Z,98292.47
2023-11-07T15:27:38.688Z,98295.84
2023-11-07T15:29:44.132Z,98297.66
2023-11-07T15:31:52.609Z,98296.19
2023-11-07T15:33:59.104Z,98304.84
2023-11-07T15:36:04.270Z,98296.75
2023-11-07T15:38:10.787Z,98294.44
2023-11-07T15:40:23.465Z,98290.53
2023-11-07T15:42:29.585Z,98278.00
2023-11-07T15:44:35.909Z,98277.38
2023-11-07T15:46:42.194Z,98275.03
2023-11-07T15:48:47.428Z,98275.28
2023-11-07T15:50:53.119Z,98277.19
2023-11-07T15:53:07.068Z,98283.41
2023-11-07T15:55:15.305Z,98287.16
2023-11-07T15:57:23.424Z,98295.91
2023-11-07T15:59:28.548Z,98299.53
2023-11-07T16:01:34.705Z,98295.69
2023-11-07T16:03:41.718Z,98303.41
2023-11-07T16:05:46.977Z,98315.22
2023-11-07T16:07:52.914Z,98326.06
2023-11-07T16:09:57.985Z,98320.06
2023-11-07T16:12:03.208Z,98317.38
2023-11-07T16:14:11.198Z,98321.50
2023-11-07T16:16:16.401Z,98317.28
2023-11-07T16:18:21.819Z,98328.91
2023-11-07T16:20:28.059Z,98336.47
2023-11-07T16:22:33.531Z,98322.91
2023-11-07T16:24:39.101Z,98319.50
2023-11-07T16:26:44.201Z,98322.63
2023-11-07T16:28:50.432Z,98309.22
2023-11-07T16:30:58.808Z,98319.16
2023-11-07T16:33:04.023Z,98320.97
2023-11-07T16:35:07.613Z,98314.50
2023-11-07T16:37:12.688Z,98314.72
2023-11-07T16:39:18.024Z,98324.06
2023-11-07T16:41:23.664Z,98326.72
2023-11-07T16:43:29.671Z,98336.78
2023-11-07T16:45:34.898Z,98335.16
2023-11-07T16:47:42.909Z,98334.41
2023-11-07T16:49:48.519Z,98336.91
2023-11-07T16:51:54.259Z,98346.94
2023-11-07T16:53:59.621Z,98347.00
2023-11-07T16:56:04.889Z,98349.34
2023-11-07T16:58:10.198Z,98346.75
2023-11-07T17:00:20.048Z,98352.44
2023-11-07T17:02:24.465Z,98349.78
2023-11-07T17:04:33.829Z,98354.66
2023-11-07T17:06:39.027Z,98351.22
2023-11-07T17:08:44.716Z,98345.28
2023-11-07T17:10:50.856Z,98335.25
2023-11-07T17:12:55.948Z,98332.63
2023-11-07T17:14:58.488Z,98325.97
2023-11-07T17:17:06.917Z,98329.28
2023-11-07T17:19:12.587Z,98332.63
2023-11-07T17:21:20.489Z,98330.22
2023-11-07T17:23:23.017Z,98334.28
2023-11-07T17:25:28.325Z,98347.53
2023-11-07T17:27:33.519Z,98357.50
2023-11-07T17:29:36.615Z,98366.56
2023-11-07T17:31:42.254Z,98362.97
2023-11-07T17:33:44.950Z,98367.09
2023-11-07T17:35:50.120Z,98360.38
2023-11-07T17:37:58.873Z,98368.66
2023-11-07T17:40:07.245Z,98360.28
2023-11-07T17:42:12.609Z,98345.41
2023-11-07T17:44:19.313Z,98356.28
2023-11-07T17:46:24.423Z,98354.66
2023-11-07T17:48:30.196Z,98359.00
2023-11-07T17:50:36.339Z,98356.56
2023-11-07T17:52:41.552Z,98363.22
2023-11-07T17:54:49.635Z,98361.56
2023-11-07T17:56:55.083Z,98367.59
2023-11-07T17:59:00.619Z,98369.38
2023-11-07T18:01:06.621Z,98361.06
2023-11-07T18:03:12.811Z,98359.34
2023-11-07T18:05:18.207Z,98363.47
2023-11-07T18:07:24.217Z,98364.44
2023-11-07T18:09:29.880Z,98362.78
2023-11-07T18:11:39.105Z,98366.06
2023-11-07T18:13:44.483Z,98366.06
2023-11-07T18:15:49.604Z,98377.72
2023-11-07T18:17:54.770Z,98369.16
2023-11-07T18:19:59.915Z,98369.88
2023-11-07T18:22:06.245Z,98373.28
2023-11-07T18:24:12.740Z,98372.41
2023-11-07T18:26:23.137Z,98375.53
2023-11-07T18:28:31.200Z,98384.72
2023-11-07T18:30:36.341Z,98387.22
2023-11-07T18:32:41.567Z,98383.06
2023-11-07T18:34:47.404Z,98382.13
2023-11-07T18:37:01.780Z,98394.66
2023-11-07T18:39:09.034Z,98393.91
2023-11-07T18:41:14.227Z,98393.16
2023-11-07T18:43:22.228Z,98390.66
2023-11-07T18:45:30.352Z,98394.94
2023-11-07T18:47:32.881Z,98395.69
2023-11-07T18:49:38.059Z,98394.94
2023-11-07T18:51:43.839Z,98398.31
2023-11-07T18:53:51.258Z,98404.97
2023-11-07T18:55:58.727Z,98412.44
2023-11-07T18:58:04.576Z,98402.34
2023-11-07T19:00:13.355Z,98409.88
2023-11-07T19:02:19.582Z,98405.63
2023-11-07T19:04:25.800Z,98407.41
2023-11-07T19:06:31.174Z,98400.78
2023-11-07T19:08:36.394Z,98407.56
2023-11-07T19:10:42.872Z,98405.84
2023-11-07T19:12:48.194Z,98402.69
2023-11-07T19:14:55.852Z,98410.19
2023-11-07T19:17:02.142Z,98405.97
2023-11-07T19:19:10.187Z,98416.88
2023-11-07T19:21:15.363Z,98410.22
2023-11-07T19:23:21.657Z,98414.38
2023-11-07T19:25:27.803Z,98418.56
2023-11-07T19:27:34.451Z,98422.66
2023-11-07T19:29:40.375Z,98429.41
2023-11-07T19:31:48.363Z,98428.59
2023-11-07T19:33:53.606Z,98424.44
2023-11-07T19:36:03.969Z,98419.41
2023-11-07T19:38:09.430Z,98424.44
2023-11-07T19:40:20.239Z,98426.09
2023-11-07T19:42:27.901Z,98431.03
2023-11-07T19:44:33.274Z,98432.66
2023-11-07T19:46:38.432Z,98434.41
2023-11-07T19:48:44.528Z,98436.13
2023-11-07T19:50:50.250Z,98437.78
2023-11-07T19:53:06.467Z,98436.13
2023-11-07T19:55:17.182Z,98426.91
2023-11-07T19:57:22.334Z,98429.44
2023-11-07T19:59:27.710Z,98428.66
2023-11-07T20:01:33.307Z,98435.34
2023-11-07T20:03:38.594Z,98439.53
2023-11-07T20:05:46.280Z,98439.53
2023-11-07T20:07:56.219Z,98437.13
2023-11-07T20:10:04.877Z,98444.56
2023-11-07T20:12:11.140Z,98445.31
2023-11-07T20:14:16.621Z,98448.75
2023-11-07T20:16:21.935Z,98443.75
2023-11-07T20:18:29.904Z,98447.91
2023-11-07T20:20:36.589Z,98449.50
2023-11-07T20:22:41.975Z,98456.19
2023-11-07T20:24:47.897Z,98440.38
2023-11-07T20:26:55.599Z,98447.84
2023-11-07T20:29:00.703Z,98452.09
2023-11-07T20:31:06.043Z,98449.69
2023-11-07T20:33:11.554Z,98443.03
2023-11-07T20:35:17.591Z,98451.34
2023-11-07T20:37:23.471Z,98451.34
2023-11-07T20:39:29.369Z,98454.69
2023-11-07T20:41:37.427Z,98453.03
2023-11-07T20:43:45.308Z,98461.38
2023-11-07T20:45:50.595Z,98439.66
2023-11-07T20:47:55.766Z,98455.50
2023-11-07T20:50:01.015Z,98441.41
2023-11-07T20:52:15.187Z,98452.28
2023-11-07T20:54:28.737Z,98449.88
2023-11-07T20:56:34.830Z,98456.53
2023-11-07T20:58:40.742Z,98456.53
2023-11-07T21:00:48.523Z,98462.34
2023-11-07T21:02:55.142Z,98463.22
2023-11-07T21:05:00.657Z,98470.72
2023-11-07T21:07:05.973Z,98466.50
2023-11-07T21:09:15.787Z,98461.47
2023-11-07T21:11:22.494Z,98472.31
2023-11-07T21:13:28.497Z,98474.00
2023-11-07T21:15:33.732Z,98476.47
2023-11-07T21:17:41.992Z,98471.47
2023-11-07T21:19:48.609Z,98469.84
2023-11-07T21:22:00.331Z,98474.84
2023-11-07T21:24:05.637Z,98481.53
2023-11-07T21:26:10.779Z,98470.63
2023-11-07T21:28:13.668Z,98473.03
2023-11-07T21:30:19.192Z,98469.72
2023-11-07T21:32:24.470Z,98465.63
2023-11-07T21:34:32.198Z,98464.78
2023-11-07T21:36:42.460Z,98463.13
2023-11-07T21:38:46.354Z,98468.16
2023-11-07T21:40:52.085Z,98468.16
2023-11-07T21:42:57.332Z,98461.59
2023-11-07T21:45:03.357Z,98466.69
2023-11-07T21:47:08.821Z,98467.63
2023-11-07T21:49:14.107Z,98465.91
2023-11-07T21:51:22.428Z,98466.78
2023-11-07T21:53:28.192Z,98467.59
2023-11-07T21:55:33.315Z,98471.75
2023-11-07T21:57:38.569Z,98463.41
2023-11-07T21:59:43.730Z,98471.69
2023-11-07T22:01:49.967Z,98460.91
2023-11-07T22:03:55.186Z,98462.41
2023-11-07T22:06:00.418Z,98466.56
2023-11-07T22:08:08.608Z,98463.25
2023-11-07T22:10:15.930Z,98455.72
2023-11-07T22:12:18.465Z,98457.41
2023-11-07T22:14:23.588Z,98471.50
2023-11-07T22:16:29.928Z,98471.50
2023-11-07T22:18:35.990Z,98460.72
2023-11-07T22:20:43.140Z,98465.75
2023-11-07T22:22:49.244Z,98468.22
2023-11-07T22:24:55.177Z,98476.59
2023-11-07T22:27:00.292Z,98469.91
2023-11-07T22:29:06.841Z,98473.28
2023-11-07T22:31:12.011Z,98475.03
2023-11-07T22:33:17.931Z,98470.00
2023-11-07T22:35:22.432Z,98476.63
2023-11-07T22:37:28.109Z,98469.91
2023-11-07T22:39:33.698Z,98473.25
2023-11-07T22:41:41.878Z,98474.94
2023-11-07T22:43:47.029Z,98479.94
2023-11-07T22:45:52.195Z,98472.34
2023-11-07T22:47:57.924Z,98467.41
2023-11-07T22:50:03.167Z,98477.41
2023-11-07T22:52:10.104Z,98474.06
2023-11-07T22:54:15.278Z,98478.16
2023-11-07T22:56:21.214Z,98474.81
2023-11-07T22:58:28.909Z,98480.66
2023-11-07T23:00:41.836Z,98483.19
2023-11-07T23:02:47.963Z,98479.75
2023-11-07T23:04:53.905Z,98481.53
2023-11-07T23:06:59.629Z,98479.03
2023-11-07T23:09:05.812Z,98483.19
2023-11-07T23:11:10.942Z,98484.88
2023-11-07T23:13:15.370Z,98479.88
2023-11-07T23:15:23.146Z,98486.53
2023-11-07T23:17:28.585Z,98486.59
2023-11-07T23:19:33.757Z,98484.94
2023-11-07T23:21:40.672Z,98482.56
2023-11-07T23:23:46.952Z,98476.69
2023-11-07T23:25:52.233Z,98488.38
2023-11-07T23:27:58.725Z,98488.44
2023-11-07T23:30:03.870Z,98481.03
2023-11-07T23:32:11.739Z,98473.56
2023-11-07T23:34:18.322Z,98477.81
2023-11-07T23:36:23.711Z,98477.91
2023-11-07T23:38:30.105Z,98473.69
2023-11-07T23:40:37.023Z,98472.91
2023-11-07T23:42:45.078Z,98469.66
2023-11-07T23:44:50.933Z,98466.28
2023-11-07T23:46:56.079Z,98468.00
2023-11-07T23:49:02.112Z,98480.50
2023-11-07T23:51:08.090Z,98467.13
2023-11-07T23:53:13.606Z,98463.78
2023-11-07T23:55:19.049Z,98470.47
2023-11-07T23:57:24.978Z,98463.78
2023-11-07T23:59:31.737Z,98472.16
